Main page
METAR-TAF:

METAR-TAF

Airports :

Nîmes–Alès–Camargue–Cévennes Airport

Nîmes, France

latitude: 43-45N, longitude: 004-25E, elevation: 94 m

Current weather observation

The report was made 10 minutes ago, at 20:00 UTC
Wind 18 kt from the North with gusts up to 30 kt
Temperature 4°C
Humidity 52%
Pressure 1027 hPa
Visibility 10 km or more
no clouds below 1500 m and no cumulonimbus

METAR: LFTW 212000Z AUTO 01018G30KT CAVOK 04/M05 Q1027

Time: 21:10 (20:10 UTC)

Forecast

The report was made 6 hours and 10 minutes ago, at 14:00 UTC
Forecast valid from 21 at 15 UTC to 22 at 15 UTC
Wind 20 kt from the North with gusts up to 30 kt
Visibility 10 km or more
no clouds below 1500 m and no cumulonimbus

TAF: LFTW 211400Z 2115/2215 01020G30KT CAVOK

Weather observations and forecasts of more than 4000 airports (METAR and TAF reports).

The available stations are represented by yellow and red dots on the map.

Hover mouse over dot to see the name of the station.

Then click to see weather observations and forecasts.

To change the map : click on the green buttons with a black cross to zoom in, on the green button with a dash to zoom out, or on the green arrows for adjacent maps.


METAR-TAF: